KCBK/CBK METAR and TAF weather

Enter ICAO airport designator
Station Type Date Time Source
KCBK METAR 2019/04/24 21:55 UTC NOAA

KCBK 242155Z AUTO 03009G21KT 10SM CLR 23/02 A2984 RMK AO2


Station Type Date Time Source
KCBK Decoded METAR 2019/04/24 21:55 UTC NOAA

Station name not available
Apr 24, 2019 - 05:55 PM EDT / 2019.04.24 2155 UTC
Wind: from the NNE (030 degrees) at 10 MPH (9 KT) gusting to 24 MPH (21 KT):0
Visibility: 10 mile(s):0
Sky conditions: clear
Temperature: 73 F (23 C)
Dew Point: 35 F (2 C)
Relative Humidity: 25%
Pressure (altimeter): 29.84 in. Hg (1010 hPa)
ob: KCBK 242155Z AUTO 03009G21KT 10SM CLR 23/02 A2984 RMK AO2
cycle: 22

Station Type Date Time Source
KCBK TAF UTC NOAA

Error!

Example: see airport list